• Join FlightAware (Why Join?)
  • Login
  • US Flag GB Flag 
11:44 EDT


 

Airport Tracker/Info


-or-


 

Live Flight TrackerFlight Track Log ✈ SWA268 ✈ 05-Apr-2013 ✈ KLAS - KABQ

Flight Track Log - Related Links

Times and Time Zones

All times are in EDT time to prevent confusion due to time zone crossing. See the SWA268 flight status page for this flight to view local times or setup timezone preferences in your user account.

Time Position Orientation Groundspeed Altitude Reporting Facility
EDT Latitude Longitude Course Direction KTS MPH feet Rate Location/Type
13:40 36.0617 -115.2608 258° West 254 292 6,000  Level Los Angeles Center
13:40 36.0139 -115.2797 198° South 283 326 7,600 2,940 Climbing Los Angeles Center
13:41 35.9378 -115.2694 174° South 300 345 11,100 3,120 Climbing Los Angeles Center
13:42 35.9256 -115.2311 111° Southeast 336 387 11,800 2,640 Climbing Los Angeles Center
13:43 35.9264 -115.1533 89° East 342 394 13,900 2,760 Climbing Los Angeles Center
13:44 35.9267 -115.0258 90° East 365 420 16,800 2,820 Climbing Los Angeles Center
13:45 35.9256 -114.8592 90° East 401 461 19,800 2,640 Climbing Los Angeles Center
13:46 35.9264 -114.7139 90° East 423 487 22,300 2,220 Climbing Los Angeles Center
13:47 35.9256 -114.5631 90° East 439 505 24,500 2,100 Climbing Los Angeles Center
13:48 35.9253 -114.4061 90° East 456 525 26,700 2,100 Climbing Los Angeles Center
13:49 35.9247 -114.2475 90° East 463 533 28,900 1,860 Climbing Los Angeles Center
13:50 35.9236 -114.0858 90° East 471 542 30,600 1,620 Climbing Los Angeles Center
13:51 35.9211 -113.8833 91° East 491 565 32,300 1,680 Climbing Los Angeles Center
13:52 35.8933 -113.7114 101° East 510 587 34,100 1,260 Climbing Los Angeles Center
13:53 35.8678 -113.5500 101° East 505 581 35,000 840 Climbing Los Angeles Center
13:54 35.8417 -113.3831 101° East 499 574 35,900 1,320 Climbing Los Angeles Center
13:55 35.8150 -113.2192 101° East 492 566 37,800 1,380 Climbing Los Angeles Center
13:56 35.7892 -113.0592 101° East 480 552 38,800 540 Climbing Los Angeles Center
13:57 35.7561 -112.8619 102° East 486 559 39,000 60 Climbing Los Angeles Center
13:58 35.7292 -112.6983 101° East 487 560 39,000  Level Los Angeles Center
13:59 35.7025 -112.5364 101° East 483 556 39,000  Level Los Angeles Center
14:00 35.6750 -112.3733 102° East 486 559 39,000  Level Los Angeles Center
14:01 35.6464 -112.2114 102° East 485 558 39,000  Level Los Angeles Center
14:02 35.6125 -112.0175 102° East 486 559 39,000  Level Albuquerque Center
14:03 35.5914 -111.8544 99° East 493 567 39,000  Level Albuquerque Center
14:04 35.5858 -111.6889 92° East 491 565 39,000  Level Albuquerque Center
14:05 35.5814 -111.5231 92° East 489 563 39,000  Level Albuquerque Center
14:06 35.5756 -111.3378 92° East 488 562 39,000  Level Albuquerque Center
14:07 35.5703 -111.1508 92° East 490 564 39,000  Level Albuquerque Center
14:09 35.5644 -110.9889 92° East 494 568 39,000  Level Albuquerque Center
14:10 35.5583 -110.7989 92° East 498 573 39,000  Level Albuquerque Center
14:11 35.5514 -110.6367 93° East 498 573 39,000  Level Albuquerque Center
14:12 35.5450 -110.4453 92° East 501 577 39,000  Level Albuquerque Center
14:13 35.5383 -110.2806 93° East 504 580 39,000  Level Albuquerque Center
14:14 35.5308 -110.0889 93° East 505 581 39,000  Level Albuquerque Center
14:15 35.5242 -109.9261 93° East 502 578 39,000  Level Albuquerque Center
14:16 35.5161 -109.7372 93° East 499 574 39,000  Level Albuquerque Center
14:17 35.5089 -109.5792 93° East 492 566 39,000  Level Albuquerque Center
14:18 35.5011 -109.3947 93° East 488 562 39,000  Level Albuquerque Center
14:19 35.4942 -109.2367 93° East 488 562 39,000  Level Albuquerque Center
14:20 35.4856 -109.0536 93° East 485 558 39,000 -240 Level Albuquerque Center
14:21 35.4778 -108.8964 93° East 485 558 38,600 -1,260 Descending Albuquerque Center
14:22 35.4806 -108.7142 89° East 483 556 36,400 -2,400 Descending Albuquerque Center
14:23 35.4839 -108.5572 88° East 483 556 33,700 -2,520 Descending Albuquerque Center
14:24 35.4892 -108.3761 88° East 480 552 31,200 -2,220 Descending Albuquerque Center
14:25 35.4808 -108.2286 94° East 463 533 29,200 -1,080 Descending Albuquerque Center
14:26 35.4697 -108.0636 95° East 440 506 29,000 -660 Descending Albuquerque Center
14:27 35.4603 -107.9200 95° East 442 509 27,900 -1,560 Descending Albuquerque Center
14:28 35.4508 -107.7636 94° East 422 486 25,800 -2,040 Descending Albuquerque Center
14:29 35.4406 -107.6364 96° East 400 460 23,700 -2,040 Descending Albuquerque Center
14:30 35.4322 -107.5106 95° East 392 451 21,600 -2,040 Descending Albuquerque Center
14:31 35.4239 -107.3944 95° East 381 438 20,000 -2,040 Descending Albuquerque Center
14:31 35.4244 -107.3678 89° East 381 438 19,500 -2,100 Descending Albuquerque Center
14:32 35.3750 -107.2689 121° Southeast 362 417 17,700 -1,920 Descending Albuquerque Center
14:33 35.3272 -107.1742 122° Southeast 350 403 16,100 -1,680 Descending Albuquerque Center
14:33 35.3178 -107.1572 124° Southeast 353 406 15,700 -1,800 Descending Albuquerque Center
14:34 35.2758 -107.0536 116° Southeast 343 395 13,800 -1,800 Descending Albuquerque Center
14:35 35.2503 -106.9597 108° East 324 373 12,400 -1,740 Descending Albuquerque Center
14:36 35.2225 -106.8603 109° East 311 358 10,700 -1,620 Descending Albuquerque Center
14:36 35.2203 -106.8456 100° East 316 364 10,400 -1,320 Descending Albuquerque Center
14:37 35.1975 -106.7656 109° East 292 336 9,400 -1,080 Descending Albuquerque Center
14:37 35.1936 -106.7494 106° East 305 351 9,300 -420 Descending Albuquerque Center
14:38 35.1722 -106.6811 111° Southeast 259 298 9,000 -300 Descending Albuquerque Center
14:38 35.1697 -106.6653 101° East 277 319 9,000 -120 Level Albuquerque Center
14:39 35.1486 -106.6067 114° Southeast 212 244 8,900 -300 Descending Albuquerque Center
14:40 35.1469 -106.5919 98° East 250 288 8,700 -1,080 Descending Albuquerque Center
14:40 35.1269 -106.5317 112° Southeast 197 227 7,700 -1,200 Descending Albuquerque Center
14:41 35.1200 -106.5181 122° Southeast 217 250 7,500 -840 Descending Albuquerque Center
14:41 35.0842 -106.5194 182° South 152 175 6,900 -780 Descending Albuquerque Center
14:42 35.0758 -106.5192 178° South 178 205 6,700 -720 Descending Albuquerque Center
14:42 35.0475 -106.5289 196° South 131 151 6,200 -720 Descending Albuquerque Center
14:43 35.0433 -106.5367 237° Southwest 153 176 6,000 -600 Descending Albuquerque Center
14:44 35.0436 -106.5881 270° West 146 168 5,400 -600 Descending Albuquerque Center